Airfield :
LOGIN :

Register | Disclaimer

   EN    FR    IT 

 










Legend :    VFR   Marginal VFR   IFR   Intensive IFR   Very Intensive IFR
Visi :
Ceiling :
>= 8 km
>= 3000ft
5 to 8 km
1000 to 3000 ft
1500m to 5 km
500 to 1000 ft
800 to 1500m
200 to 500 ft
< 800m
< 200 ft
Symbols :   Thunderstorms  Fog  Heavy snow  Heavy precipitations  Wind > 20 kt
SIGMETs :     Misc.  Thunderstorms  Icing  Turbulence  Mountain Waves  Volcanic Ashes







- Airport Elevation : 290 ft
- IATA code : OSI


LDOS - Osijek

CURRENT METAR :
  • 170730Z 23007KT 9999 FEW010 SCT030 20/19 Q1009

EXPIRED METARs :
  • 170700Z 24007KT 9999 SCT037 19/18 Q1009
  • 170630Z 23006KT 9999 SCT033 19/18 Q1009
  • 170600Z 24006KT 9999 -RA BKN030 19/18 Q1009
  • 170530Z 21006KT 9999 BKN033 19/18 Q1009
  • 170500Z 23004KT 150V260 9999 BKN033 19/18 Q1009

TAF TAF LDOS
Valid from the 17 at 06:00 until the 18 at 06:00 UTC


170525Z 1706/1806 28006KT 9999 FEW030 TX26/1713Z TN18/1803Z
PROB30
TEMPO 1706/1709 BKN010
PROB30
TEMPO 1713/1716 VRB15KT TSRA FEW035CB
BECMG 1717/1719 30012KT
PROB30
TEMPO 1718/1721 VRB15KT TSRA FEW035CB
No reported NOTAMs for that airfield.



MET'MAP, your aeronautical weather chart ! - Copyright ORBIFLY December 2007 - Disclaimer

ORBIFLY MET'MAP TEAM :

Programming & Development : Alexandra Zaïnal
Concept & Development : Baudouin d'Aumeries
Co-Development & Prog : Marc-Olivier Méhu
Technical & hardware support : Manuel Goepfert

Contact : metmap@orbifly.com




SOURCES & CREDITS :

   NOAA